sensor_id;sensor_type;location;lat;lon;timestamp;temperature;humidity
78289;DHT22;67539;48.752;12.922;2024-03-07T00:01:28;7.20;99.90
78289;DHT22;67539;48.752;12.922;2024-03-07T00:03:56;7.20;99.90
78289;DHT22;67539;48.752;12.922;2024-03-07T00:06:24;7.20;99.90
78289;DHT22;67539;48.752;12.922;2024-03-07T00:08:52;7.20;99.90
78289;DHT22;67539;48.752;12.922;2024-03-07T00:11:22;7.10;99.90
78289;DHT22;67539;48.752;12.922;2024-03-07T00:13:50;7.10;99.90
78289;DHT22;67539;48.752;12.922;2024-03-07T00:16:19;7.10;99.90
78289;DHT22;67539;48.752;12.922;2024-03-07T00:18:48;7.10;99.90
78289;DHT22;67539;48.752;12.922;2024-03-07T00:21:16;7.10;99.90
78289;DHT22;67539;48.752;12.922;2024-03-07T00:23:44;7.10;99.90
78289;DHT22;67539;48.752;12.922;2024-03-07T00:26:12;7.00;99.90
78289;DHT22;67539;48.752;12.922;2024-03-07T00:28:41;7.00;99.90
78289;DHT22;67539;48.752;12.922;2024-03-07T00:31:09;7.00;99.90
78289;DHT22;67539;48.752;12.922;2024-03-07T00:33:39;7.00;99.90
78289;DHT22;67539;48.752;12.922;2024-03-07T00:36:27;6.90;99.90
78289;DHT22;67539;48.752;12.922;2024-03-07T00:38:55;6.90;99.90
78289;DHT22;67539;48.752;12.922;2024-03-07T00:41:23;6.90;99.90
78289;DHT22;67539;48.752;12.922;2024-03-07T00:43:52;6.90;99.90
78289;DHT22;67539;48.752;12.922;2024-03-07T00:46:20;6.90;99.90
78289;DHT22;67539;48.752;12.922;2024-03-07T00:48:49;6.90;99.90
78289;DHT22;67539;48.752;12.922;2024-03-07T00:51:17;6.80;99.90
78289;DHT22;67539;48.752;12.922;2024-03-07T00:53:46;6.80;99.90
78289;DHT22;67539;48.752;12.922;2024-03-07T00:56:14;6.80;99.90
78289;DHT22;67539;48.752;12.922;2024-03-07T00:58:42;6.80;99.90
78289;DHT22;67539;48.752;12.922;2024-03-07T01:01:10;6.80;99.90
78289;DHT22;67539;48.752;12.922;2024-03-07T01:03:40;6.70;99.90
78289;DHT22;67539;48.752;12.922;2024-03-07T01:06:09;6.70;99.90
78289;DHT22;67539;48.752;12.922;2024-03-07T01:08:38;6.70;99.90
78289;DHT22;67539;48.752;12.922;2024-03-07T01:11:06;6.60;99.90
78289;DHT22;67539;48.752;12.922;2024-03-07T01:13:36;6.60;99.90
78289;DHT22;67539;48.752;12.922;2024-03-07T01:16:06;6.50;99.90
78289;DHT22;67539;48.752;12.922;2024-03-07T01:18:34;6.60;99.90
78289;DHT22;67539;48.752;12.922;2024-03-07T01:21:03;6.60;99.90
78289;DHT22;67539;48.752;12.922;2024-03-07T01:23:33;6.60;99.90
78289;DHT22;67539;48.752;12.922;2024-03-07T01:26:01;6.60;99.90
78289;DHT22;67539;48.752;12.922;2024-03-07T01:28:29;6.60;99.90
78289;DHT22;67539;48.752;12.922;2024-03-07T01:30:58;6.60;99.90
78289;DHT22;67539;48.752;12.922;2024-03-07T01:33:26;6.60;99.90
78289;DHT22;67539;48.752;12.922;2024-03-07T01:35:55;6.60;99.90
78289;DHT22;67539;48.752;12.922;2024-03-07T01:38:23;6.60;99.90
78289;DHT22;67539;48.752;12.922;2024-03-07T01:40:53;6.50;99.90
78289;DHT22;67539;48.752;12.922;2024-03-07T01:43:22;6.50;99.90
78289;DHT22;67539;48.752;12.922;2024-03-07T01:45:54;6.50;99.90
78289;DHT22;67539;48.752;12.922;2024-03-07T01:48:27;6.50;99.90
78289;DHT22;67539;48.752;12.922;2024-03-07T01:50:56;6.50;99.90
78289;DHT22;67539;48.752;12.922;2024-03-07T01:53:25;6.40;99.90
78289;DHT22;67539;48.752;12.922;2024-03-07T01:55:56;6.40;99.90
78289;DHT22;67539;48.752;12.922;2024-03-07T01:58:25;6.40;99.90
78289;DHT22;67539;48.752;12.922;2024-03-07T02:00:53;6.40;99.90
78289;DHT22;67539;48.752;12.922;2024-03-07T02:03:21;6.40;99.90
78289;DHT22;67539;48.752;12.922;2024-03-07T02:05:50;6.40;99.90
78289;DHT22;67539;48.752;12.922;2024-03-07T02:08:19;6.40;99.90
78289;DHT22;67539;48.752;12.922;2024-03-07T02:10:47;6.30;99.90
78289;DHT22;67539;48.752;12.922;2024-03-07T02:13:18;6.30;99.90
78289;DHT22;67539;48.752;12.922;2024-03-07T02:15:46;6.30;99.90
78289;DHT22;67539;48.752;12.922;2024-03-07T02:18:15;6.20;99.90
78289;DHT22;67539;48.752;12.922;2024-03-07T02:20:45;6.20;99.90
78289;DHT22;67539;48.752;12.922;2024-03-07T02:23:13;6.20;99.90
78289;DHT22;67539;48.752;12.922;2024-03-07T02:25:42;6.20;99.90
78289;DHT22;67539;48.752;12.922;2024-03-07T02:28:10;6.10;99.90
78289;DHT22;67539;48.752;12.922;2024-03-07T02:30:38;6.10;99.90
78289;DHT22;67539;48.752;12.922;2024-03-07T02:33:06;6.10;99.90
78289;DHT22;67539;48.752;12.922;2024-03-07T02:35:36;6.10;99.90
78289;DHT22;67539;48.752;12.922;2024-03-07T02:38:06;6.00;99.90
78289;DHT22;67539;48.752;12.922;2024-03-07T02:40:35;6.00;99.90
78289;DHT22;67539;48.752;12.922;2024-03-07T02:43:03;6.00;99.90
78289;DHT22;67539;48.752;12.922;2024-03-07T02:45:34;6.00;99.90
78289;DHT22;67539;48.752;12.922;2024-03-07T02:48:03;6.00;99.90
78289;DHT22;67539;48.752;12.922;2024-03-07T02:50:32;6.00;99.90
78289;DHT22;67539;48.752;12.922;2024-03-07T02:53:01;5.90;99.90
78289;DHT22;67539;48.752;12.922;2024-03-07T02:55:32;5.90;99.90
78289;DHT22;67539;48.752;12.922;2024-03-07T02:58:01;5.80;99.90
78289;DHT22;67539;48.752;12.922;2024-03-07T03:00:29;5.80;99.90
78289;DHT22;67539;48.752;12.922;2024-03-07T03:02:57;5.70;99.90
78289;DHT22;67539;48.752;12.922;2024-03-07T03:05:25;5.70;99.90
78289;DHT22;67539;48.752;12.922;2024-03-07T03:07:54;5.70;99.90
78289;DHT22;67539;48.752;12.922;2024-03-07T03:10:24;5.60;99.90
78289;DHT22;67539;48.752;12.922;2024-03-07T03:12:58;5.60;99.90
78289;DHT22;67539;48.752;12.922;2024-03-07T03:15:28;5.50;99.90
78289;DHT22;67539;48.752;12.922;2024-03-07T03:17:57;5.40;99.90
78289;DHT22;67539;48.752;12.922;2024-03-07T03:20:28;5.30;99.90
78289;DHT22;67539;48.752;12.922;2024-03-07T03:23:03;5.30;99.90
78289;DHT22;67539;48.752;12.922;2024-03-07T03:25:46;5.20;99.90
78289;DHT22;67539;48.752;12.922;2024-03-07T03:28:18;5.10;99.90
78289;DHT22;67539;48.752;12.922;2024-03-07T03:30:49;5.10;99.90
78289;DHT22;67539;48.752;12.922;2024-03-07T03:33:17;5.00;99.90
78289;DHT22;67539;48.752;12.922;2024-03-07T03:35:46;4.90;99.90
78289;DHT22;67539;48.752;12.922;2024-03-07T03:38:14;4.90;99.90
78289;DHT22;67539;48.752;12.922;2024-03-07T03:40:43;4.80;99.90
78289;DHT22;67539;48.752;12.922;2024-03-07T03:43:11;4.80;99.90
78289;DHT22;67539;48.752;12.922;2024-03-07T03:45:41;4.70;99.90
78289;DHT22;67539;48.752;12.922;2024-03-07T03:48:09;4.70;99.90
78289;DHT22;67539;48.752;12.922;2024-03-07T03:50:37;4.60;99.90
78289;DHT22;67539;48.752;12.922;2024-03-07T03:53:05;4.50;99.90
78289;DHT22;67539;48.752;12.922;2024-03-07T03:55:35;4.40;99.90
78289;DHT22;67539;48.752;12.922;2024-03-07T03:58:04;4.30;99.90
78289;DHT22;67539;48.752;12.922;2024-03-07T04:00:33;4.30;99.90
78289;DHT22;67539;48.752;12.922;2024-03-07T04:03:03;4.20;99.90
78289;DHT22;67539;48.752;12.922;2024-03-07T04:05:31;4.10;99.90
78289;DHT22;67539;48.752;12.922;2024-03-07T04:07:59;4.10;99.90
78289;DHT22;67539;48.752;12.922;2024-03-07T04:10:28;4.00;99.90
78289;DHT22;67539;48.752;12.922;2024-03-07T04:12:56;4.00;99.90
78289;DHT22;67539;48.752;12.922;2024-03-07T04:15:24;3.90;99.90
78289;DHT22;67539;48.752;12.922;2024-03-07T04:17:53;3.90;99.90
78289;DHT22;67539;48.752;12.922;2024-03-07T04:20:25;3.80;99.90
78289;DHT22;67539;48.752;12.922;2024-03-07T04:22:53;3.70;99.90
78289;DHT22;67539;48.752;12.922;2024-03-07T04:25:22;3.60;99.90
78289;DHT22;67539;48.752;12.922;2024-03-07T04:27:51;3.60;99.90
78289;DHT22;67539;48.752;12.922;2024-03-07T04:30:20;3.50;99.90
78289;DHT22;67539;48.752;12.922;2024-03-07T04:32:48;3.40;99.90
78289;DHT22;67539;48.752;12.922;2024-03-07T04:35:16;3.40;99.90
78289;DHT22;67539;48.752;12.922;2024-03-07T04:37:47;3.40;99.90
78289;DHT22;67539;48.752;12.922;2024-03-07T04:40:16;3.40;99.90
78289;DHT22;67539;48.752;12.922;2024-03-07T04:42:46;3.30;99.90
78289;DHT22;67539;48.752;12.922;2024-03-07T04:45:17;3.30;99.90
78289;DHT22;67539;48.752;12.922;2024-03-07T04:47:46;3.30;99.90
78289;DHT22;67539;48.752;12.922;2024-03-07T04:50:16;3.20;99.90
78289;DHT22;67539;48.752;12.922;2024-03-07T04:52:47;3.20;99.90
78289;DHT22;67539;48.752;12.922;2024-03-07T04:55:17;3.20;99.90
78289;DHT22;67539;48.752;12.922;2024-03-07T04:57:45;3.10;99.90
78289;DHT22;67539;48.752;12.922;2024-03-07T05:00:14;3.10;99.90
78289;DHT22;67539;48.752;12.922;2024-03-07T05:02:48;3.10;99.90
78289;DHT22;67539;48.752;12.922;2024-03-07T05:05:17;3.10;99.90
78289;DHT22;67539;48.752;12.922;2024-03-07T05:07:52;3.10;99.90
78289;DHT22;67539;48.752;12.922;2024-03-07T05:10:20;3.00;99.90
78289;DHT22;67539;48.752;12.922;2024-03-07T05:12:48;3.00;99.90
78289;DHT22;67539;48.752;12.922;2024-03-07T05:15:18;3.00;99.90
78289;DHT22;67539;48.752;12.922;2024-03-07T05:17:46;3.00;99.90
78289;DHT22;67539;48.752;12.922;2024-03-07T05:20:16;3.00;99.90
78289;DHT22;67539;48.752;12.922;2024-03-07T05:22:44;2.90;99.90
78289;DHT22;67539;48.752;12.922;2024-03-07T05:25:22;2.90;99.90
78289;DHT22;67539;48.752;12.922;2024-03-07T05:27:50;2.90;99.90
78289;DHT22;67539;48.752;12.922;2024-03-07T05:30:19;2.90;99.90
78289;DHT22;67539;48.752;12.922;2024-03-07T05:32:50;2.90;99.90
78289;DHT22;67539;48.752;12.922;2024-03-07T05:35:19;2.80;99.90
78289;DHT22;67539;48.752;12.922;2024-03-07T05:37:48;2.80;99.90
78289;DHT22;67539;48.752;12.922;2024-03-07T05:40:20;2.70;99.90
78289;DHT22;67539;48.752;12.922;2024-03-07T05:42:48;2.70;99.90
78289;DHT22;67539;48.752;12.922;2024-03-07T05:45:16;2.70;99.90
78289;DHT22;67539;48.752;12.922;2024-03-07T05:47:46;2.80;99.90
78289;DHT22;67539;48.752;12.922;2024-03-07T05:50:16;2.80;99.90
78289;DHT22;67539;48.752;12.922;2024-03-07T05:52:45;2.80;99.90
78289;DHT22;67539;48.752;12.922;2024-03-07T05:55:15;2.70;99.90
78289;DHT22;67539;48.752;12.922;2024-03-07T05:57:47;2.70;99.90
78289;DHT22;67539;48.752;12.922;2024-03-07T06:00:16;2.70;99.90
78289;DHT22;67539;48.752;12.922;2024-03-07T06:02:55;2.70;99.90
78289;DHT22;67539;48.752;12.922;2024-03-07T06:05:23;2.70;99.90
78289;DHT22;67539;48.752;12.922;2024-03-07T06:07:51;2.80;99.90
78289;DHT22;67539;48.752;12.922;2024-03-07T06:10:18;2.80;99.90
78289;DHT22;67539;48.752;12.922;2024-03-07T06:12:52;2.80;99.90
78289;DHT22;67539;48.752;12.922;2024-03-07T06:15:37;2.80;99.90
78289;DHT22;67539;48.752;12.922;2024-03-07T06:18:05;2.90;99.90
78289;DHT22;67539;48.752;12.922;2024-03-07T06:20:35;2.90;99.90
78289;DHT22;67539;48.752;12.922;2024-03-07T06:23:03;2.90;99.90
78289;DHT22;67539;48.752;12.922;2024-03-07T06:25:32;2.90;99.90
78289;DHT22;67539;48.752;12.922;2024-03-07T06:28:06;3.00;99.90
78289;DHT22;67539;48.752;12.922;2024-03-07T06:30:39;3.00;99.90
78289;DHT22;67539;48.752;12.922;2024-03-07T06:33:08;3.00;99.90
78289;DHT22;67539;48.752;12.922;2024-03-07T06:35:37;3.00;99.90
78289;DHT22;67539;48.752;12.922;2024-03-07T06:38:06;3.00;99.90
78289;DHT22;67539;48.752;12.922;2024-03-07T06:40:35;3.00;99.90
78289;DHT22;67539;48.752;12.922;2024-03-07T06:43:05;3.00;99.90
78289;DHT22;67539;48.752;12.922;2024-03-07T06:45:34;3.10;99.90
78289;DHT22;67539;48.752;12.922;2024-03-07T06:48:04;3.20;99.90
78289;DHT22;67539;48.752;12.922;2024-03-07T06:50:34;3.20;99.90
78289;DHT22;67539;48.752;12.922;2024-03-07T06:53:05;3.30;99.90
78289;DHT22;67539;48.752;12.922;2024-03-07T06:55:35;3.30;99.90
78289;DHT22;67539;48.752;12.922;2024-03-07T06:58:06;3.30;99.90
78289;DHT22;67539;48.752;12.922;2024-03-07T07:00:34;3.40;99.90
78289;DHT22;67539;48.752;12.922;2024-03-07T07:03:05;3.40;99.90
78289;DHT22;67539;48.752;12.922;2024-03-07T07:05:34;3.50;99.90
78289;DHT22;67539;48.752;12.922;2024-03-07T07:08:03;3.50;99.90
78289;DHT22;67539;48.752;12.922;2024-03-07T07:10:34;3.50;99.90
78289;DHT22;67539;48.752;12.922;2024-03-07T07:13:03;3.60;99.90
78289;DHT22;67539;48.752;12.922;2024-03-07T07:15:33;3.60;99.90
78289;DHT22;67539;48.752;12.922;2024-03-07T07:18:04;3.60;99.90
78289;DHT22;67539;48.752;12.922;2024-03-07T07:20:34;3.70;99.90
78289;DHT22;67539;48.752;12.922;2024-03-07T07:23:03;3.70;99.90
78289;DHT22;67539;48.752;12.922;2024-03-07T07:25:31;3.70;99.90
78289;DHT22;67539;48.752;12.922;2024-03-07T07:28:00;3.80;99.90
78289;DHT22;67539;48.752;12.922;2024-03-07T07:30:32;3.80;99.90
78289;DHT22;67539;48.752;12.922;2024-03-07T07:33:00;3.90;99.90
78289;DHT22;67539;48.752;12.922;2024-03-07T07:35:29;3.90;99.90
78289;DHT22;67539;48.752;12.922;2024-03-07T07:37:58;3.90;99.90
78289;DHT22;67539;48.752;12.922;2024-03-07T07:40:26;4.00;99.90
78289;DHT22;67539;48.752;12.922;2024-03-07T07:42:55;4.00;99.90
78289;DHT22;67539;48.752;12.922;2024-03-07T07:45:23;4.00;99.90
78289;DHT22;67539;48.752;12.922;2024-03-07T07:47:53;4.10;99.90
78289;DHT22;67539;48.752;12.922;2024-03-07T07:50:23;4.10;99.90
78289;DHT22;67539;48.752;12.922;2024-03-07T07:52:53;4.10;99.90
78289;DHT22;67539;48.752;12.922;2024-03-07T07:55:24;4.20;99.90
78289;DHT22;67539;48.752;12.922;2024-03-07T07:57:53;4.30;99.90
78289;DHT22;67539;48.752;12.922;2024-03-07T08:00:23;4.40;99.90
78289;DHT22;67539;48.752;12.922;2024-03-07T08:02:54;4.50;99.90
78289;DHT22;67539;48.752;12.922;2024-03-07T08:05:24;4.50;99.90
78289;DHT22;67539;48.752;12.922;2024-03-07T08:07:54;4.50;99.90
78289;DHT22;67539;48.752;12.922;2024-03-07T08:10:24;4.50;99.90
78289;DHT22;67539;48.752;12.922;2024-03-07T08:12:52;4.50;99.90
78289;DHT22;67539;48.752;12.922;2024-03-07T08:15:21;4.60;99.90
78289;DHT22;67539;48.752;12.922;2024-03-07T08:17:50;4.60;99.90
78289;DHT22;67539;48.752;12.922;2024-03-07T08:20:21;4.70;99.90
78289;DHT22;67539;48.752;12.922;2024-03-07T08:22:50;4.80;99.90
78289;DHT22;67539;48.752;12.922;2024-03-07T08:25:20;4.90;99.90
78289;DHT22;67539;48.752;12.922;2024-03-07T08:27:51;4.90;99.90
78289;DHT22;67539;48.752;12.922;2024-03-07T08:30:20;5.00;99.90
78289;DHT22;67539;48.752;12.922;2024-03-07T08:32:51;5.10;99.90
78289;DHT22;67539;48.752;12.922;2024-03-07T08:35:21;5.20;99.90
78289;DHT22;67539;48.752;12.922;2024-03-07T08:37:50;5.30;99.90
78289;DHT22;67539;48.752;12.922;2024-03-07T08:40:22;5.30;99.90
78289;DHT22;67539;48.752;12.922;2024-03-07T08:42:55;5.50;99.90
78289;DHT22;67539;48.752;12.922;2024-03-07T08:45:25;5.60;99.90
78289;DHT22;67539;48.752;12.922;2024-03-07T08:47:54;5.70;99.90
78289;DHT22;67539;48.752;12.922;2024-03-07T08:50:25;5.90;99.90
78289;DHT22;67539;48.752;12.922;2024-03-07T08:52:55;6.00;99.90
78289;DHT22;67539;48.752;12.922;2024-03-07T08:55:24;6.20;99.90
78289;DHT22;67539;48.752;12.922;2024-03-07T08:57:53;6.50;99.90
78289;DHT22;67539;48.752;12.922;2024-03-07T09:00:21;6.70;99.90
78289;DHT22;67539;48.752;12.922;2024-03-07T09:02:53;6.70;99.90
78289;DHT22;67539;48.752;12.922;2024-03-07T09:05:23;6.90;99.90
78289;DHT22;67539;48.752;12.922;2024-03-07T09:07:53;7.00;99.90
78289;DHT22;67539;48.752;12.922;2024-03-07T09:10:22;7.10;99.90
78289;DHT22;67539;48.752;12.922;2024-03-07T09:12:53;7.20;99.90
78289;DHT22;67539;48.752;12.922;2024-03-07T09:15:22;7.30;99.90
78289;DHT22;67539;48.752;12.922;2024-03-07T09:17:51;7.40;99.90
78289;DHT22;67539;48.752;12.922;2024-03-07T09:20:20;7.40;99.90
78289;DHT22;67539;48.752;12.922;2024-03-07T09:22:52;7.50;99.90
78289;DHT22;67539;48.752;12.922;2024-03-07T09:25:22;7.60;99.90
78289;DHT22;67539;48.752;12.922;2024-03-07T09:27:52;7.60;99.90
78289;DHT22;67539;48.752;12.922;2024-03-07T09:30:21;7.70;99.90
78289;DHT22;67539;48.752;12.922;2024-03-07T09:32:53;7.80;99.90
78289;DHT22;67539;48.752;12.922;2024-03-07T09:35:23;7.90;99.90
78289;DHT22;67539;48.752;12.922;2024-03-07T09:37:53;8.00;99.90
78289;DHT22;67539;48.752;12.922;2024-03-07T09:40:22;8.10;99.90
78289;DHT22;67539;48.752;12.922;2024-03-07T09:42:54;8.20;99.90
78289;DHT22;67539;48.752;12.922;2024-03-07T09:45:29;8.20;99.90
78289;DHT22;67539;48.752;12.922;2024-03-07T09:47:59;8.30;99.90
78289;DHT22;67539;48.752;12.922;2024-03-07T09:50:29;8.30;99.90
78289;DHT22;67539;48.752;12.922;2024-03-07T09:53:00;8.30;99.90
78289;DHT22;67539;48.752;12.922;2024-03-07T09:55:31;8.50;99.90
78289;DHT22;67539;48.752;12.922;2024-03-07T09:58:01;8.60;99.90
78289;DHT22;67539;48.752;12.922;2024-03-07T10:00:31;8.70;99.90
78289;DHT22;67539;48.752;12.922;2024-03-07T10:03:05;8.60;99.90
78289;DHT22;67539;48.752;12.922;2024-03-07T10:05:34;8.70;99.90
78289;DHT22;67539;48.752;12.922;2024-03-07T10:08:06;8.90;99.90
78289;DHT22;67539;48.752;12.922;2024-03-07T10:10:35;8.90;99.90
78289;DHT22;67539;48.752;12.922;2024-03-07T10:13:04;9.00;99.90
78289;DHT22;67539;48.752;12.922;2024-03-07T10:15:33;9.20;99.90
78289;DHT22;67539;48.752;12.922;2024-03-07T10:18:07;9.30;99.90
78289;DHT22;67539;48.752;12.922;2024-03-07T10:20:37;9.30;99.90
78289;DHT22;67539;48.752;12.922;2024-03-07T10:23:08;9.50;99.90
78289;DHT22;67539;48.752;12.922;2024-03-07T10:25:37;9.40;99.90
78289;DHT22;67539;48.752;12.922;2024-03-07T10:28:06;9.40;99.90
78289;DHT22;67539;48.752;12.922;2024-03-07T10:30:41;9.40;99.90
78289;DHT22;67539;48.752;12.922;2024-03-07T10:33:12;9.50;99.90
78289;DHT22;67539;48.752;12.922;2024-03-07T10:35:42;9.40;99.90
78289;DHT22;67539;48.752;12.922;2024-03-07T10:38:12;9.40;99.90
78289;DHT22;67539;48.752;12.922;2024-03-07T10:40:42;9.40;99.90
78289;DHT22;67539;48.752;12.922;2024-03-07T10:43:11;9.50;99.90
78289;DHT22;67539;48.752;12.922;2024-03-07T10:45:45;9.70;99.90
78289;DHT22;67539;48.752;12.922;2024-03-07T10:48:17;9.80;99.90
78289;DHT22;67539;48.752;12.922;2024-03-07T10:50:58;10.00;99.90
78289;DHT22;67539;48.752;12.922;2024-03-07T10:53:45;10.10;99.90
78289;DHT22;67539;48.752;12.922;2024-03-07T10:56:33;10.20;99.90
78289;DHT22;67539;48.752;12.922;2024-03-07T10:59:16;10.30;99.00
78289;DHT22;67539;48.752;12.922;2024-03-07T11:01:49;10.40;99.70
78289;DHT22;67539;48.752;12.922;2024-03-07T11:04:22;10.40;99.40
78289;DHT22;67539;48.752;12.922;2024-03-07T11:06:51;10.50;99.70
78289;DHT22;67539;48.752;12.922;2024-03-07T11:09:22;10.50;99.30
78289;DHT22;67539;48.752;12.922;2024-03-07T11:11:51;10.50;99.90
78289;DHT22;67539;48.752;12.922;2024-03-07T11:14:20;10.50;99.90
78289;DHT22;67539;48.752;12.922;2024-03-07T11:16:49;10.50;99.90
78289;DHT22;67539;48.752;12.922;2024-03-07T11:19:24;10.50;99.90
78289;DHT22;67539;48.752;12.922;2024-03-07T11:21:55;10.50;99.90
78289;DHT22;67539;48.752;12.922;2024-03-07T11:24:26;10.40;99.90
78289;DHT22;67539;48.752;12.922;2024-03-07T11:26:56;10.50;99.90
78289;DHT22;67539;48.752;12.922;2024-03-07T11:29:47;10.50;99.90
78289;DHT22;67539;48.752;12.922;2024-03-07T11:32:21;10.40;99.90
78289;DHT22;67539;48.752;12.922;2024-03-07T11:34:53;10.40;99.90
78289;DHT22;67539;48.752;12.922;2024-03-07T11:37:38;10.30;99.90
78289;DHT22;67539;48.752;12.922;2024-03-07T11:40:12;10.30;99.90
78289;DHT22;67539;48.752;12.922;2024-03-07T11:42:47;10.20;99.90
78289;DHT22;67539;48.752;12.922;2024-03-07T11:45:17;10.20;99.90
78289;DHT22;67539;48.752;12.922;2024-03-07T11:47:55;10.20;99.90
78289;DHT22;67539;48.752;12.922;2024-03-07T11:50:28;10.20;99.90
78289;DHT22;67539;48.752;12.922;2024-03-07T11:52:56;10.20;99.90
78289;DHT22;67539;48.752;12.922;2024-03-07T11:55:26;10.20;99.90
78289;DHT22;67539;48.752;12.922;2024-03-07T11:57:55;10.10;99.90
78289;DHT22;67539;48.752;12.922;2024-03-07T12:00:24;10.10;99.80
78289;DHT22;67539;48.752;12.922;2024-03-07T12:03:01;10.00;99.80
78289;DHT22;67539;48.752;12.922;2024-03-07T12:05:32;9.90;99.30
78289;DHT22;67539;48.752;12.922;2024-03-07T12:08:04;9.80;99.30
78289;DHT22;67539;48.752;12.922;2024-03-07T12:10:35;9.80;99.40
78289;DHT22;67539;48.752;12.922;2024-03-07T12:13:06;9.70;99.20
78289;DHT22;67539;48.752;12.922;2024-03-07T12:15:35;9.50;98.40
78289;DHT22;67539;48.752;12.922;2024-03-07T12:18:05;9.40;99.10
78289;DHT22;67539;48.752;12.922;2024-03-07T12:20:37;9.30;99.00
78289;DHT22;67539;48.752;12.922;2024-03-07T12:23:05;9.20;99.00
78289;DHT22;67539;48.752;12.922;2024-03-07T12:25:37;9.10;99.20
78289;DHT22;67539;48.752;12.922;2024-03-07T12:28:07;9.00;99.30
78289;DHT22;67539;48.752;12.922;2024-03-07T12:30:48;8.90;99.40
78289;DHT22;67539;48.752;12.922;2024-03-07T12:33:18;8.90;99.90
78289;DHT22;67539;48.752;12.922;2024-03-07T12:35:47;8.90;99.90
78289;DHT22;67539;48.752;12.922;2024-03-07T12:38:17;8.80;99.70
78289;DHT22;67539;48.752;12.922;2024-03-07T12:40:47;8.70;99.90
78289;DHT22;67539;48.752;12.922;2024-03-07T12:43:17;8.60;99.90
78289;DHT22;67539;48.752;12.922;2024-03-07T12:45:48;8.60;99.90
78289;DHT22;67539;48.752;12.922;2024-03-07T12:48:16;8.60;99.90
78289;DHT22;67539;48.752;12.922;2024-03-07T12:50:46;8.60;99.90
78289;DHT22;67539;48.752;12.922;2024-03-07T12:53:20;8.60;99.90
78289;DHT22;67539;48.752;12.922;2024-03-07T12:55:50;8.60;99.90
78289;DHT22;67539;48.752;12.922;2024-03-07T12:58:19;8.60;99.90
78289;DHT22;67539;48.752;12.922;2024-03-07T13:00:49;8.60;99.90
78289;DHT22;67539;48.752;12.922;2024-03-07T13:03:17;8.60;99.90
78289;DHT22;67539;48.752;12.922;2024-03-07T13:05:46;8.60;99.90
78289;DHT22;67539;48.752;12.922;2024-03-07T13:08:15;8.60;99.90
78289;DHT22;67539;48.752;12.922;2024-03-07T13:10:43;8.60;99.70
78289;DHT22;67539;48.752;12.922;2024-03-07T13:13:17;8.60;99.90
78289;DHT22;67539;48.752;12.922;2024-03-07T13:15:47;8.70;99.90
78289;DHT22;67539;48.752;12.922;2024-03-07T13:18:15;8.70;99.90
78289;DHT22;67539;48.752;12.922;2024-03-07T13:20:43;8.70;99.90
78289;DHT22;67539;48.752;12.922;2024-03-07T13:23:13;8.70;99.90
78289;DHT22;67539;48.752;12.922;2024-03-07T13:25:41;8.80;99.90
78289;DHT22;67539;48.752;12.922;2024-03-07T13:28:12;8.80;99.90
78289;DHT22;67539;48.752;12.922;2024-03-07T13:30:45;8.80;99.90
78289;DHT22;67539;48.752;12.922;2024-03-07T13:33:16;8.80;99.90
78289;DHT22;67539;48.752;12.922;2024-03-07T13:35:45;8.70;99.90
78289;DHT22;67539;48.752;12.922;2024-03-07T13:38:13;8.70;99.90
78289;DHT22;67539;48.752;12.922;2024-03-07T13:40:43;8.70;99.90
78289;DHT22;67539;48.752;12.922;2024-03-07T13:43:11;8.70;99.90
78289;DHT22;67539;48.752;12.922;2024-03-07T13:45:39;8.70;99.90
78289;DHT22;67539;48.752;12.922;2024-03-07T13:48:11;8.70;99.90
78289;DHT22;67539;48.752;12.922;2024-03-07T13:50:41;8.70;99.90
78289;DHT22;67539;48.752;12.922;2024-03-07T13:53:26;8.70;99.90
78289;DHT22;67539;48.752;12.922;2024-03-07T13:56:20;8.80;99.90
78289;DHT22;67539;48.752;12.922;2024-03-07T13:59:14;8.70;99.90
78289;DHT22;67539;48.752;12.922;2024-03-07T14:01:57;8.80;99.90
78289;DHT22;67539;48.752;12.922;2024-03-07T14:07:53;8.70;99.90
78289;DHT22;67539;48.752;12.922;2024-03-07T14:13:42;8.70;99.90
78289;DHT22;67539;48.752;12.922;2024-03-07T14:16:44;8.70;99.90
78289;DHT22;67539;48.752;12.922;2024-03-07T14:23:03;8.60;99.90
78289;DHT22;67539;48.752;12.922;2024-03-07T14:26:09;8.60;99.90
78289;DHT22;67539;48.752;12.922;2024-03-07T14:29:02;8.50;99.90
78289;DHT22;67539;48.752;12.922;2024-03-07T14:31:32;8.50;99.90
78289;DHT22;67539;48.752;12.922;2024-03-07T14:34:08;8.50;99.90
78289;DHT22;67539;48.752;12.922;2024-03-07T14:36:44;8.50;99.90
78289;DHT22;67539;48.752;12.922;2024-03-07T14:39:15;8.50;99.90
78289;DHT22;67539;48.752;12.922;2024-03-07T14:41:51;8.50;99.90
78289;DHT22;67539;48.752;12.922;2024-03-07T14:44:21;8.40;99.90
78289;DHT22;67539;48.752;12.922;2024-03-07T14:46:53;8.40;99.90
78289;DHT22;67539;48.752;12.922;2024-03-07T14:49:24;8.40;99.90
78289;DHT22;67539;48.752;12.922;2024-03-07T14:51:52;8.30;99.90
78289;DHT22;67539;48.752;12.922;2024-03-07T14:54:28;8.30;99.90
78289;DHT22;67539;48.752;12.922;2024-03-07T14:56:57;8.20;99.90
78289;DHT22;67539;48.752;12.922;2024-03-07T14:59:25;8.20;99.90
78289;DHT22;67539;48.752;12.922;2024-03-07T15:01:54;8.20;99.90
78289;DHT22;67539;48.752;12.922;2024-03-07T15:04:27;8.10;99.90
78289;DHT22;67539;48.752;12.922;2024-03-07T15:06:58;8.10;99.90
78289;DHT22;67539;48.752;12.922;2024-03-07T15:09:31;8.00;99.00
78289;DHT22;67539;48.752;12.922;2024-03-07T15:12:01;7.90;99.50
78289;DHT22;67539;48.752;12.922;2024-03-07T15:14:31;7.80;99.70
78289;DHT22;67539;48.752;12.922;2024-03-07T15:17:06;7.80;98.90
78289;DHT22;67539;48.752;12.922;2024-03-07T15:19:34;7.70;99.00
78289;DHT22;67539;48.752;12.922;2024-03-07T15:22:02;7.70;99.40
78289;DHT22;67539;48.752;12.922;2024-03-07T15:24:33;7.60;99.30
78289;DHT22;67539;48.752;12.922;2024-03-07T15:27:04;7.60;99.90
78289;DHT22;67539;48.752;12.922;2024-03-07T15:29:33;7.60;99.90
78289;DHT22;67539;48.752;12.922;2024-03-07T15:32:04;7.60;99.40
78289;DHT22;67539;48.752;12.922;2024-03-07T15:34:36;7.60;99.50
78289;DHT22;67539;48.752;12.922;2024-03-07T15:37:04;7.60;99.60
78289;DHT22;67539;48.752;12.922;2024-03-07T15:39:36;7.60;99.90
78289;DHT22;67539;48.752;12.922;2024-03-07T15:42:06;7.60;99.90
78289;DHT22;67539;48.752;12.922;2024-03-07T15:44:36;7.60;99.90
78289;DHT22;67539;48.752;12.922;2024-03-07T15:47:05;7.60;99.90
78289;DHT22;67539;48.752;12.922;2024-03-07T15:49:38;7.60;99.90
78289;DHT22;67539;48.752;12.922;2024-03-07T15:52:07;7.60;99.90
78289;DHT22;67539;48.752;12.922;2024-03-07T15:54:41;7.70;99.90
78289;DHT22;67539;48.752;12.922;2024-03-07T15:57:11;7.70;99.90
78289;DHT22;67539;48.752;12.922;2024-03-07T15:59:42;7.70;99.90
78289;DHT22;67539;48.752;12.922;2024-03-07T16:02:12;7.60;99.90